createdAt,value
2023-02-17T00:01:17.605Z,31.25
2023-02-17T00:03:48.019Z,31.95
2023-02-17T00:06:16.338Z,31.85
2023-02-17T00:08:43.073Z,31.67
2023-02-17T00:11:09.675Z,35.40
2023-02-17T00:13:36.174Z,32.05
2023-02-17T00:16:08.295Z,33.55
2023-02-17T00:18:35.166Z,37.22
2023-02-17T00:21:11.181Z,36.30
2023-02-17T00:23:37.699Z,39.28
2023-02-17T00:26:07.994Z,35.70
2023-02-17T00:28:34.681Z,36.88
2023-02-17T00:31:15.164Z,36.35
2023-02-17T00:33:41.868Z,36.35
2023-02-17T00:36:11.578Z,36.40
2023-02-17T00:38:38.216Z,36.70
2023-02-17T00:41:04.875Z,36.88
2023-02-17T00:43:31.680Z,35.72
2023-02-17T00:45:58.177Z,35.05
2023-02-17T00:48:24.711Z,36.50
2023-02-17T00:50:51.242Z,36.25
2023-02-17T00:53:17.783Z,37.47
2023-02-17T00:55:44.295Z,39.45
2023-02-17T00:58:10.806Z,37.25
2023-02-17T01:00:37.304Z,35.50
2023-02-17T01:03:04.224Z,35.92
2023-02-17T01:05:31.032Z,39.78
2023-02-17T01:07:57.561Z,38.95
2023-02-17T01:10:24.211Z,37.38
2023-02-17T01:12:50.758Z,37.35
2023-02-17T01:15:17.432Z,36.78
2023-02-17T01:17:43.987Z,38.22
2023-02-17T01:20:10.648Z,34.78
2023-02-17T01:22:39.876Z,37.65
2023-02-17T01:25:07.411Z,34.90
2023-02-17T01:27:34.070Z,36.88
2023-02-17T01:30:00.725Z,36.60
2023-02-17T01:32:27.341Z,36.92
2023-02-17T01:34:54.432Z,37.97
2023-02-17T01:37:20.936Z,39.08
2023-02-17T01:39:47.450Z,42.08
2023-02-17T01:42:19.957Z,39.33
2023-02-17T01:45:28.351Z,35.75
2023-02-17T01:48:12.638Z,38.53
2023-02-17T01:50:47.124Z,37.47
2023-02-17T01:53:20.084Z,38.53
2023-02-17T01:55:46.969Z,38.58
2023-02-17T01:58:16.167Z,36.45
2023-02-17T02:00:42.946Z,37.42
2023-02-17T02:03:10.847Z,39.10
2023-02-17T02:05:38.212Z,39.03
2023-02-17T02:08:05.171Z,36.05
2023-02-17T02:10:33.191Z,40.03
2023-02-17T02:12:59.813Z,39.03
2023-02-17T02:15:30.729Z,40.20
2023-02-17T02:18:19.257Z,41.97
2023-02-17T02:21:16.210Z,42.25
2023-02-17T02:24:01.308Z,43.72
2023-02-17T02:26:50.937Z,42.42
2023-02-17T02:29:46.214Z,47.35
2023-02-17T02:32:45.397Z,41.20
2023-02-17T02:35:20.974Z,46.53
2023-02-17T02:37:53.455Z,44.70
2023-02-17T02:40:22.944Z,45.15
2023-02-17T02:42:50.102Z,47.03
2023-02-17T02:45:18.096Z,51.92
2023-02-17T02:47:50.306Z,48.00
2023-02-17T02:50:45.624Z,47.65
2023-02-17T02:53:50.474Z,48.85
2023-02-17T02:56:48.290Z,49.67
2023-02-17T02:59:24.140Z,50.13
2023-02-17T03:02:05.257Z,52.17
2023-02-17T03:07:21.197Z,47.47
2023-02-17T03:09:52.896Z,49.38
2023-02-17T03:12:20.636Z,48.60
2023-02-17T03:14:49.724Z,45.53
2023-02-17T03:17:16.847Z,50.08
2023-02-17T03:19:45.743Z,47.67
2023-02-17T03:22:20.294Z,48.25
2023-02-17T03:24:47.489Z,46.38
2023-02-17T03:27:13.998Z,48.13
2023-02-17T03:29:40.654Z,52.38
2023-02-17T03:32:07.625Z,57.35
2023-02-17T03:34:34.422Z,56.47
2023-02-17T03:37:00.963Z,53.03
2023-02-17T03:39:27.709Z,53.45
2023-02-17T03:41:54.259Z,50.60
2023-02-17T03:44:20.924Z,49.90
2023-02-17T03:46:47.547Z,60.35
2023-02-17T03:49:14.044Z,55.72
2023-02-17T03:51:40.670Z,57.70
2023-02-17T03:54:07.193Z,53.13
2023-02-17T03:56:33.752Z,54.25
2023-02-17T03:59:00.244Z,58.08
2023-02-17T04:01:26.740Z,54.30
2023-02-17T04:03:53.254Z,53.65
2023-02-17T04:06:19.904Z,54.35
2023-02-17T04:08:46.512Z,58.38
2023-02-17T04:11:13.042Z,57.38
2023-02-17T04:13:40.096Z,59.50
2023-02-17T04:16:08.584Z,65.90
2023-02-17T04:18:35.772Z,67.95
2023-02-17T04:21:02.433Z,57.30
2023-02-17T04:23:28.977Z,60.15
2023-02-17T04:25:55.491Z,65.43
2023-02-17T04:28:22.339Z,71.40
2023-02-17T04:30:50.776Z,57.35
2023-02-17T04:33:17.355Z,63.50
2023-02-17T04:35:43.924Z,75.57
2023-02-17T04:38:10.637Z,56.60
2023-02-17T04:40:37.970Z,71.80
2023-02-17T04:43:04.644Z,64.78
2023-02-17T04:45:31.212Z,60.55
2023-02-17T04:47:57.715Z,66.03
2023-02-17T04:50:24.366Z,67.15
2023-02-17T04:52:50.856Z,66.07
2023-02-17T04:55:17.395Z,61.35
2023-02-17T04:57:43.877Z,64.18
2023-02-17T05:00:10.875Z,60.72
2023-02-17T05:02:37.495Z,63.10
2023-02-17T05:05:04.558Z,69.10
2023-02-17T05:07:31.092Z,64.30
2023-02-17T05:09:57.595Z,60.85
2023-02-17T05:12:24.568Z,57.38
2023-02-17T05:14:51.074Z,62.47
2023-02-17T05:17:17.622Z,69.70
2023-02-17T05:19:44.119Z,61.53
2023-02-17T05:22:17.236Z,61.60
2023-02-17T05:24:47.184Z,67.72
2023-02-17T05:27:13.835Z,57.22
2023-02-17T05:29:40.409Z,65.25
2023-02-17T05:32:07.052Z,65.45
2023-02-17T05:34:33.695Z,66.18
2023-02-17T05:37:00.607Z,58.72
2023-02-17T05:39:27.193Z,58.80
2023-02-17T05:41:55.357Z,54.63
2023-02-17T05:44:23.225Z,58.20
2023-02-17T05:46:49.873Z,56.90
2023-02-17T05:49:16.376Z,54.33
2023-02-17T05:51:42.994Z,53.65
2023-02-17T05:54:09.506Z,49.55
2023-02-17T05:56:36.048Z,57.65
2023-02-17T05:59:02.598Z,50.60
2023-02-17T06:01:29.163Z,53.40
2023-02-17T06:03:55.872Z,60.38
2023-02-17T06:06:22.654Z,49.65
2023-02-17T06:08:49.505Z,51.10
2023-02-17T06:11:16.341Z,52.20
2023-02-17T06:13:42.971Z,49.70
2023-02-17T06:16:09.869Z,52.28
2023-02-17T06:18:36.666Z,50.67
2023-02-17T06:21:03.206Z,50.20
2023-02-17T06:23:30.028Z,44.72
2023-02-17T06:25:56.954Z,45.47
2023-02-17T06:28:29.123Z,47.83
2023-02-17T06:30:56.264Z,43.47
2023-02-17T06:33:22.833Z,47.90
2023-02-17T06:35:50.710Z,42.78
2023-02-17T06:38:17.781Z,43.17
2023-02-17T06:40:44.387Z,43.80
2023-02-17T06:43:11.353Z,41.20
2023-02-17T06:45:38.448Z,44.65
2023-02-17T06:48:05.078Z,38.72
2023-02-17T06:50:31.659Z,39.50
2023-02-17T06:52:58.176Z,39.75
2023-02-17T06:55:24.757Z,35.88
2023-02-17T06:57:51.359Z,35.13
2023-02-17T07:00:18.230Z,37.42
2023-02-17T07:02:44.911Z,33.38
2023-02-17T07:05:11.475Z,35.25
2023-02-17T07:07:38.028Z,34.08
2023-02-17T07:10:05.311Z,36.25
2023-02-17T07:12:31.861Z,32.85
2023-02-17T07:14:58.513Z,30.88
2023-02-17T07:17:25.035Z,31.83
2023-02-17T07:19:51.552Z,30.50
2023-02-17T07:22:18.156Z,30.25
2023-02-17T07:24:44.794Z,28.25
2023-02-17T07:27:11.385Z,26.75
2023-02-17T07:29:37.897Z,28.60
2023-02-17T07:32:04.829Z,29.88
2023-02-17T07:34:31.379Z,27.48
2023-02-17T07:36:57.927Z,26.50
2023-02-17T07:39:24.417Z,27.35
2023-02-17T07:41:51.257Z,25.00
2023-02-17T07:44:18.345Z,25.33
2023-02-17T07:46:44.898Z,25.25
2023-02-17T07:49:11.396Z,25.10
2023-02-17T07:51:38.225Z,24.67
2023-02-17T07:54:04.890Z,23.70
2023-02-17T07:56:33.642Z,23.98
2023-02-17T07:59:00.200Z,23.65
2023-02-17T08:01:26.697Z,22.90
2023-02-17T08:03:53.599Z,22.80
2023-02-17T08:06:22.569Z,24.30
2023-02-17T08:09:08.918Z,22.58
2023-02-17T08:11:54.325Z,21.83
2023-02-17T08:14:25.358Z,21.65
2023-02-17T08:19:18.779Z,20.80
2023-02-17T08:21:45.300Z,21.33
2023-02-17T08:24:23.820Z,19.98
2023-02-17T08:26:50.319Z,21.13
2023-02-17T08:29:17.702Z,20.27
2023-02-17T08:31:44.561Z,20.50
2023-02-17T08:34:12.703Z,21.05
2023-02-17T08:36:40.258Z,21.45
2023-02-17T08:39:12.377Z,22.67
2023-02-17T08:41:39.330Z,21.90
2023-02-17T08:44:14.850Z,23.42
2023-02-17T08:46:42.085Z,22.42
2023-02-17T08:49:08.656Z,22.25
2023-02-17T08:51:35.809Z,23.60
2023-02-17T08:54:04.634Z,24.83
2023-02-17T08:56:31.234Z,26.48
2023-02-17T08:59:00.631Z,26.85
2023-02-17T09:01:36.270Z,24.92
2023-02-17T09:04:04.839Z,26.05
2023-02-17T09:06:44.075Z,26.30
2023-02-17T09:12:07.583Z,26.35
2023-02-17T09:14:41.030Z,26.35
2023-02-17T09:17:16.855Z,27.40
2023-02-17T09:19:48.748Z,26.65
2023-02-17T09:22:31.592Z,27.50
2023-02-17T09:25:06.697Z,26.85
2023-02-17T09:27:33.459Z,22.33
2023-02-17T09:30:18.816Z,27.88
2023-02-17T09:32:45.890Z,30.90
2023-02-17T09:35:21.992Z,26.55
2023-02-17T09:37:58.087Z,28.63
2023-02-17T09:40:55.959Z,29.02
2023-02-17T09:43:26.958Z,26.60
2023-02-17T09:46:02.954Z,27.38
2023-02-17T09:48:31.198Z,27.73
2023-02-17T09:51:12.793Z,29.25
2023-02-17T09:54:10.149Z,32.15
2023-02-17T09:56:50.744Z,30.02
2023-02-17T09:59:50.698Z,31.17
2023-02-17T10:02:35.646Z,30.48
2023-02-17T10:05:06.255Z,25.52
2023-02-17T10:07:49.405Z,31.73
2023-02-17T10:10:23.725Z,31.83
2023-02-17T10:12:53.928Z,32.03
2023-02-17T10:15:28.133Z,29.50
2023-02-17T10:18:47.368Z,31.80
2023-02-17T10:21:19.568Z,24.02
2023-02-17T10:23:51.489Z,32.40
2023-02-17T10:26:55.704Z,32.22
2023-02-17T10:29:43.505Z,32.15
2023-02-17T10:32:26.470Z,31.33
2023-02-17T10:34:55.668Z,31.88
2023-02-17T10:37:47.304Z,32.15
2023-02-17T10:40:25.276Z,32.42
2023-02-17T10:43:01.746Z,31.70
2023-02-17T10:45:49.605Z,31.20
2023-02-17T10:48:20.560Z,31.83
2023-02-17T10:50:47.942Z,30.30
2023-02-17T10:53:17.659Z,28.20
2023-02-17T10:55:53.339Z,31.42
2023-02-17T10:58:25.684Z,29.85
2023-02-17T11:00:56.383Z,30.65
2023-02-17T11:03:25.973Z,28.63
2023-02-17T11:05:55.249Z,30.67
2023-02-17T11:08:32.062Z,29.30
2023-02-17T11:11:25.955Z,27.48
2023-02-17T11:14:10.858Z,27.15
2023-02-17T11:16:50.592Z,26.33
2023-02-17T11:19:23.615Z,26.95
2023-02-17T11:21:52.384Z,25.02
2023-02-17T11:24:19.428Z,26.52
2023-02-17T11:26:59.375Z,25.35
2023-02-17T11:29:26.827Z,24.45
2023-02-17T11:31:54.512Z,23.75
2023-02-17T11:34:23.525Z,23.52
2023-02-17T11:37:00.302Z,22.35
2023-02-17T11:39:26.876Z,22.25
2023-02-17T11:41:53.503Z,21.27
2023-02-17T11:44:25.615Z,21.88
2023-02-17T11:47:00.345Z,20.58
2023-02-17T11:49:33.095Z,21.05
2023-02-17T11:52:08.873Z,19.15
2023-02-17T11:54:53.912Z,18.75
2023-02-17T11:57:32.545Z,18.00
2023-02-17T12:00:16.170Z,17.83
2023-02-17T12:03:13.879Z,17.58
2023-02-17T12:05:55.634Z,16.45
2023-02-17T12:08:40.471Z,16.17
2023-02-17T12:11:38.895Z,13.48
2023-02-17T12:14:43.338Z,14.88
2023-02-17T12:17:41.808Z,14.48
2023-02-17T12:20:26.800Z,13.68
2023-02-17T12:23:10.307Z,12.43
2023-02-17T12:25:40.408Z,14.07
2023-02-17T12:28:44.236Z,13.05
2023-02-17T12:31:16.975Z,12.10
2023-02-17T12:34:21.742Z,11.30
2023-02-17T12:36:49.098Z,12.02
2023-02-17T12:39:20.647Z,11.10
2023-02-17T12:41:51.473Z,11.10
2023-02-17T12:44:21.281Z,10.98
2023-02-17T12:46:51.563Z,11.02
2023-02-17T12:49:23.880Z,10.50
2023-02-17T12:52:06.488Z,10.15
2023-02-17T12:54:36.619Z,9.52
2023-02-17T12:57:11.331Z,10.47
2023-02-17T12:59:39.948Z,9.90
2023-02-17T13:02:13.777Z,11.07
2023-02-17T13:04:42.148Z,9.55
2023-02-17T13:07:13.575Z,8.32
2023-02-17T13:09:41.580Z,7.25
2023-02-17T13:12:23.193Z,8.32
2023-02-17T13:15:03.678Z,8.00
2023-02-17T13:17:40.634Z,8.63
2023-02-17T13:20:25.131Z,8.45
2023-02-17T13:23:04.747Z,8.02
2023-02-17T13:25:35.659Z,9.68
2023-02-17T13:28:17.153Z,7.10
2023-02-17T13:30:45.644Z,7.00
2023-02-17T13:33:29.346Z,8.30
2023-02-17T13:35:56.100Z,7.63
2023-02-17T13:38:32.930Z,6.43
2023-02-17T13:41:01.684Z,7.13
2023-02-17T13:43:30.449Z,7.40
2023-02-17T13:45:59.935Z,6.43
2023-02-17T13:48:29.551Z,6.47
2023-02-17T13:51:06.398Z,6.88
2023-02-17T13:53:38.292Z,6.53
2023-02-17T13:56:10.611Z,5.97
2023-02-17T13:58:39.333Z,5.03
2023-02-17T14:01:07.510Z,7.15
2023-02-17T14:03:36.074Z,5.57
2023-02-17T14:06:03.073Z,6.05
2023-02-17T14:08:34.101Z,5.20
2023-02-17T14:13:47.570Z,5.63
2023-02-17T14:16:32.272Z,6.00
2023-02-17T14:19:02.495Z,6.00
2023-02-17T14:21:29.277Z,4.67
2023-02-17T14:23:57.332Z,7.18
2023-02-17T14:26:30.974Z,5.75
2023-02-17T14:29:00.962Z,4.93
2023-02-17T14:31:28.085Z,7.50
2023-02-17T14:34:01.137Z,6.50
2023-02-17T14:36:31.246Z,6.13
2023-02-17T14:39:03.391Z,5.93
2023-02-17T14:41:30.662Z,5.72
2023-02-17T14:43:57.625Z,6.18
2023-02-17T14:46:24.443Z,7.65
2023-02-17T14:48:51.391Z,8.30
2023-02-17T14:51:20.451Z,7.05
2023-02-17T14:53:47.207Z,8.27
2023-02-17T14:56:19.833Z,8.77
2023-02-17T14:58:46.642Z,8.55
2023-02-17T15:01:15.000Z,9.43
2023-02-17T15:03:41.670Z,9.38
2023-02-17T15:06:33.363Z,10.73
2023-02-17T15:09:01.305Z,10.60
2023-02-17T15:11:32.103Z,11.02
2023-02-17T15:13:58.615Z,11.35
2023-02-17T15:16:25.179Z,13.85
2023-02-17T15:18:51.824Z,11.73
2023-02-17T15:21:29.194Z,12.85
2023-02-17T15:23:56.097Z,12.00
2023-02-17T15:26:22.721Z,13.10
2023-02-17T15:28:49.543Z,13.10
2023-02-17T15:31:16.926Z,13.15
2023-02-17T15:33:44.081Z,13.13
2023-02-17T15:36:14.993Z,14.90
2023-02-17T15:38:41.846Z,14.88
2023-02-17T15:41:20.902Z,15.68
2023-02-17T15:43:48.139Z,14.85
2023-02-17T15:46:16.475Z,14.20
2023-02-17T15:48:43.837Z,15.77
2023-02-17T15:51:13.306Z,14.52
2023-02-17T15:53:39.836Z,15.73
2023-02-17T15:56:16.232Z,15.10
2023-02-17T15:58:43.633Z,15.63
2023-02-17T16:01:18.725Z,14.18
2023-02-17T16:03:45.572Z,14.80
2023-02-17T16:06:12.092Z,14.27
2023-02-17T16:08:38.582Z,14.65
2023-02-17T16:11:05.164Z,14.15
2023-02-17T16:13:32.497Z,15.05
2023-02-17T16:15:59.835Z,14.38
2023-02-17T16:18:26.634Z,13.95
2023-02-17T16:20:53.253Z,15.88
2023-02-17T16:23:19.890Z,14.20
2023-02-17T16:25:48.069Z,14.50
2023-02-17T16:28:17.278Z,14.75
2023-02-17T16:30:44.538Z,12.77
2023-02-17T16:33:11.802Z,13.60
2023-02-17T16:35:38.786Z,12.90
2023-02-17T16:38:07.941Z,13.32
2023-02-17T16:40:36.708Z,10.88
2023-02-17T16:43:04.009Z,11.13
2023-02-17T16:45:32.086Z,9.57
2023-02-17T16:48:00.401Z,9.60
2023-02-17T16:50:34.980Z,9.60
2023-02-17T16:53:03.889Z,10.07
2023-02-17T16:55:33.264Z,9.98
2023-02-17T16:58:00.451Z,8.07
2023-02-17T17:00:29.804Z,8.23
2023-02-17T17:02:57.064Z,7.50
2023-02-17T17:05:24.605Z,7.25
2023-02-17T17:07:53.672Z,7.47
2023-02-17T17:10:30.146Z,8.45
2023-02-17T17:12:57.106Z,8.23
2023-02-17T17:15:24.070Z,8.25
2023-02-17T17:17:57.703Z,8.60
2023-02-17T17:20:34.163Z,9.27
2023-02-17T17:23:13.677Z,8.43
2023-02-17T17:25:42.888Z,7.75
2023-02-17T17:28:13.358Z,7.93
2023-02-17T17:30:39.959Z,5.72
2023-02-17T17:33:06.466Z,7.18
2023-02-17T17:35:33.032Z,6.18
2023-02-17T17:37:59.650Z,6.20
2023-02-17T17:40:32.362Z,5.90
2023-02-17T17:42:59.447Z,6.32
2023-02-17T17:45:26.983Z,6.50
2023-02-17T17:47:53.534Z,5.97
2023-02-17T17:50:22.632Z,5.00
2023-02-17T17:52:49.285Z,6.25
2023-02-17T17:55:18.842Z,4.55
2023-02-17T17:57:45.661Z,4.50
2023-02-17T18:00:16.509Z,6.60
2023-02-17T18:02:43.080Z,6.00
2023-02-17T18:05:09.623Z,6.13
2023-02-17T18:07:38.474Z,6.50
2023-02-17T18:10:08.525Z,5.88
2023-02-17T18:12:36.246Z,5.93
2023-02-17T18:15:04.378Z,5.55
2023-02-17T18:17:34.019Z,8.15
2023-02-17T18:20:00.875Z,7.68
2023-02-17T18:22:27.774Z,7.68
2023-02-17T18:24:54.364Z,5.82
2023-02-17T18:27:22.837Z,4.90
2023-02-17T18:29:49.506Z,8.52
2023-02-17T18:32:15.980Z,9.32
2023-02-17T18:34:42.570Z,6.90
2023-02-17T18:37:09.090Z,8.85
2023-02-17T18:39:35.601Z,6.18
2023-02-17T18:42:02.410Z,7.65
2023-02-17T18:44:28.903Z,6.22
2023-02-17T18:46:55.474Z,8.88
2023-02-17T18:49:22.382Z,7.70
2023-02-17T18:51:49.221Z,8.23
2023-02-17T18:54:15.945Z,9.45
2023-02-17T18:56:42.455Z,9.75
2023-02-17T18:59:09.040Z,7.45
2023-02-17T19:01:40.930Z,10.43
2023-02-17T19:04:09.582Z,10.10
2023-02-17T19:06:36.357Z,9.10
2023-02-17T19:09:04.504Z,10.95
2023-02-17T19:11:31.804Z,9.75
2023-02-17T19:14:00.469Z,6.93
2023-02-17T19:16:28.575Z,8.02
2023-02-17T19:18:56.109Z,6.22
2023-02-17T19:21:22.965Z,6.22
2023-02-17T19:23:50.213Z,5.18
2023-02-17T19:26:17.558Z,5.13
2023-02-17T19:28:45.101Z,6.80
2023-02-17T19:31:15.384Z,7.15
2023-02-17T19:33:43.032Z,8.90
2023-02-17T19:36:15.339Z,4.22
2023-02-17T19:38:42.110Z,6.47
2023-02-17T19:41:10.189Z,7.32
2023-02-17T19:43:36.729Z,6.18
2023-02-17T19:46:03.749Z,5.70
2023-02-17T19:48:30.297Z,6.28
2023-02-17T19:51:02.925Z,5.88
2023-02-17T19:53:31.450Z,6.97
2023-02-17T19:56:14.860Z,7.20
2023-02-17T19:58:42.484Z,7.07
2023-02-17T20:01:11.268Z,6.88
2023-02-17T20:03:37.815Z,9.82
2023-02-17T20:06:28.094Z,7.22
2023-02-17T20:08:59.777Z,8.10
2023-02-17T20:11:27.224Z,7.60
2023-02-17T20:13:54.285Z,8.63
2023-02-17T20:16:21.042Z,6.43
2023-02-17T20:18:49.143Z,7.65
2023-02-17T20:21:24.089Z,5.15
2023-02-17T20:23:51.479Z,7.03
2023-02-17T20:26:23.087Z,7.82
2023-02-17T20:28:49.966Z,8.18
2023-02-17T20:31:17.016Z,9.07
2023-02-17T20:33:44.466Z,6.95
2023-02-17T20:36:11.969Z,6.97
2023-02-17T20:38:39.330Z,7.38
2023-02-17T20:41:07.577Z,10.35
2023-02-17T20:43:34.705Z,8.70
2023-02-17T20:46:01.669Z,8.05
2023-02-17T20:48:28.216Z,9.60
2023-02-17T20:50:55.740Z,10.27
2023-02-17T20:53:22.596Z,8.98
2023-02-17T20:55:49.779Z,10.10
2023-02-17T20:58:16.413Z,9.15
2023-02-17T21:00:42.983Z,8.63
2023-02-17T21:03:09.742Z,10.75
2023-02-17T21:05:36.503Z,7.53
2023-02-17T21:08:03.204Z,9.45
2023-02-17T21:10:31.640Z,8.98
2023-02-17T21:12:58.292Z,10.82
2023-02-17T21:15:24.861Z,9.60
2023-02-17T21:17:51.500Z,10.63
2023-02-17T21:20:20.378Z,12.32
2023-02-17T21:22:46.990Z,10.07
2023-02-17T21:25:13.540Z,12.63
2023-02-17T21:27:40.070Z,12.05
2023-02-17T21:30:08.416Z,12.98
2023-02-17T21:32:35.137Z,10.20
2023-02-17T21:35:01.694Z,12.95
2023-02-17T21:37:28.392Z,9.98
2023-02-17T21:39:54.951Z,11.52
2023-02-17T21:42:42.352Z,13.07
2023-02-17T21:45:09.935Z,11.43
2023-02-17T21:47:36.502Z,13.13
2023-02-17T21:50:03.090Z,10.82
2023-02-17T21:52:29.624Z,11.77
2023-02-17T21:54:56.152Z,15.52
2023-02-17T21:57:22.738Z,9.43
2023-02-17T21:59:49.249Z,10.90
2023-02-17T22:02:15.736Z,16.90
2023-02-17T22:04:42.308Z,12.63
2023-02-17T22:07:11.085Z,9.18
2023-02-17T22:09:37.644Z,11.93
2023-02-17T22:12:04.202Z,9.77
2023-02-17T22:14:30.769Z,13.43
2023-02-17T22:16:57.569Z,11.15
2023-02-17T22:19:24.846Z,16.77
2023-02-17T22:21:51.723Z,8.57
2023-02-17T22:24:20.623Z,9.27
2023-02-17T22:26:48.357Z,11.75
2023-02-17T22:29:14.924Z,12.75
2023-02-17T22:31:41.602Z,11.13
2023-02-17T22:34:10.105Z,9.20
2023-02-17T22:36:37.072Z,10.95
2023-02-17T22:39:05.532Z,13.68
2023-02-17T22:41:32.672Z,12.05
2023-02-17T22:44:00.423Z,11.38
2023-02-17T22:46:27.266Z,10.88
2023-02-17T22:48:55.438Z,6.75
2023-02-17T22:51:24.988Z,12.02
2023-02-17T22:53:51.823Z,12.48
2023-02-17T22:56:18.945Z,15.15
2023-02-17T22:58:45.460Z,16.73
2023-02-17T23:01:20.729Z,15.77
2023-02-17T23:03:49.332Z,12.55
2023-02-17T23:06:21.788Z,12.02
2023-02-17T23:08:49.272Z,14.65
2023-02-17T23:11:18.773Z,10.88
2023-02-17T23:13:45.665Z,12.57
2023-02-17T23:16:18.531Z,15.77
2023-02-17T23:18:45.047Z,15.93
2023-02-17T23:21:12.895Z,14.50
2023-02-17T23:23:39.407Z,14.48
2023-02-17T23:26:07.076Z,9.98
2023-02-17T23:28:33.800Z,13.10
2023-02-17T23:31:00.373Z,14.45
2023-02-17T23:33:26.932Z,14.98
2023-02-17T23:35:53.493Z,12.65
2023-02-17T23:38:20.929Z,13.68
2023-02-17T23:40:49.406Z,14.32
2023-02-17T23:43:15.991Z,13.43
2023-02-17T23:45:42.513Z,17.92
2023-02-17T23:48:09.041Z,16.60
2023-02-17T23:50:35.544Z,16.83
2023-02-17T23:53:02.081Z,17.73
2023-02-17T23:55:28.643Z,13.90
2023-02-17T23:57:55.157Z,11.27
